Time;durP1;ratioP1;P1;durP2;ratioP2;P2;SDS_P1;SDS_P2;PMS_P1;PMS_P2;Temp;Humidity;BMP_temperature;BMP_pressure;BME280_temperature;BME280_humidity;BME280_pressure;Samples;Min_cycle;Max_cycle;Signal;HPM_P1;HPM_P2
2023/08/11 00:00:08;;;;;;;83.87;28.93;;;17.80;99.90;;;;;;4946114;29;20428;-81
2023/08/11 00:02:35;;;;;;;80.00;20.87;;;17.80;99.90;;;;;;4945291;29;20179;-82
2023/08/11 00:05:00;;;;;;;80.00;25.10;;;17.80;99.90;;;;;;4944297;29;20821;-82
2023/08/11 00:07:26;;;;;;;83.87;28.90;;;17.70;99.90;;;;;;4943378;29;20409;-81
2023/08/11 00:09:52;;;;;;;82.90;24.77;;;17.70;99.90;;;;;;4944449;29;20196;-82
2023/08/11 00:12:17;;;;;;;82.47;19.97;;;17.70;99.90;;;;;;4927068;29;20176;-82
2023/08/11 00:14:43;;;;;;;82.60;21.07;;;17.70;99.90;;;;;;4944016;29;20165;-82
2023/08/11 00:17:08;;;;;;;79.83;23.10;;;17.70;99.90;;;;;;4943908;29;20244;-81
2023/08/11 00:19:34;;;;;;;83.23;23.67;;;17.70;99.90;;;;;;4944076;29;20560;-81
2023/08/11 00:22:00;;;;;;;86.20;22.07;;;17.60;99.90;;;;;;4943725;29;20196;-82
2023/08/11 00:24:26;;;;;;;81.40;17.67;;;17.70;99.90;;;;;;4944870;29;20218;-81
2023/08/11 00:26:51;;;;;;;82.00;21.73;;;17.70;99.90;;;;;;4944610;29;20173;-81
2023/08/11 00:29:17;;;;;;;83.57;27.50;;;17.60;99.90;;;;;;4926991;29;20525;-81
2023/08/11 00:31:45;;;;;;;79.07;22.43;;;17.50;99.90;;;;;;4944041;29;20196;-81
2023/08/11 00:34:10;;;;;;;81.83;25.97;;;17.50;99.90;;;;;;4926191;29;20176;-81
2023/08/11 00:36:36;;;;;;;82.37;26.20;;;17.60;99.90;;;;;;4943799;29;20405;-82
2023/08/11 00:39:02;;;;;;;82.47;25.83;;;17.60;99.90;;;;;;4943655;29;20661;-82
2023/08/11 00:41:27;;;;;;;81.57;26.17;;;17.60;99.90;;;;;;4943433;29;20188;-82
2023/08/11 00:43:53;;;;;;;80.80;27.53;;;17.60;99.90;;;;;;4926638;29;20184;-82
2023/08/11 00:46:22;;;;;;;85.90;27.77;;;17.60;99.90;;;;;;4945336;29;20535;-82
2023/08/11 00:48:51;;;;;;;80.40;25.27;;;17.60;99.90;;;;;;4945256;29;20189;-82
2023/08/11 00:51:18;;;;;;;85.27;29.43;;;17.70;99.90;;;;;;4945540;29;20456;-83
2023/08/11 00:53:49;;;;;;;80.63;22.77;;;17.60;99.90;;;;;;4945932;29;20439;-82
2023/08/11 00:56:19;;;;;;;80.47;24.60;;;17.70;99.90;;;;;;5011595;23;20492;-82
2023/08/11 00:58:45;;;;;;;84.17;24.53;;;17.60;99.90;;;;;;4942537;29;20492;-82
2023/08/11 01:01:11;;;;;;;84.37;24.17;;;17.60;99.90;;;;;;4942633;29;20495;-82
2023/08/11 01:03:37;;;;;;;85.27;27.43;;;17.70;99.90;;;;;;4942019;29;20920;-82
2023/08/11 01:06:33;;;;;;;81.63;24.97;;;17.60;99.90;;;;;;4942391;29;20180;-82
2023/08/11 01:09:25;;;;;;;78.80;24.23;;;17.60;99.90;;;;;;4942665;29;20224;-82
2023/08/11 01:11:59;;;;;;;80.50;22.67;;;17.50;99.90;;;;;;4942509;29;20413;-82
2023/08/11 01:14:36;;;;;;;79.77;19.77;;;17.50;99.90;;;;;;4941980;29;20385;-82
2023/08/11 01:17:04;;;;;;;80.27;20.57;;;17.50;99.90;;;;;;4941747;29;20385;-81
2023/08/11 01:19:35;;;;;;;79.87;22.47;;;17.50;99.90;;;;;;4941228;29;20448;-82
2023/08/11 01:22:03;;;;;;;80.07;21.77;;;17.50;99.90;;;;;;4924546;29;20504;-82
2023/08/11 01:24:31;;;;;;;79.47;23.47;;;17.50;99.90;;;;;;4941623;29;20411;-81
2023/08/11 01:26:57;;;;;;;79.37;26.83;;;17.50;99.90;;;;;;4941477;29;20983;-81
2023/08/11 01:29:24;;;;;;;79.87;25.87;;;17.30;99.90;;;;;;4941276;29;20417;-81
2023/08/11 01:31:50;;;;;;;81.23;23.47;;;17.40;99.90;;;;;;4940877;29;20415;-81
2023/08/11 01:34:16;;;;;;;85.33;24.47;;;17.30;99.90;;;;;;4924054;29;20507;-81
2023/08/11 01:36:45;;;;;;;83.10;25.40;;;17.40;99.90;;;;;;4923778;29;20784;-81
2023/08/11 01:39:10;;;;;;;83.30;21.40;;;17.40;99.90;;;;;;4941449;29;20428;-81
2023/08/11 01:41:39;;;;;;;82.17;24.03;;;17.40;99.90;;;;;;4924273;29;20503;-82
2023/08/11 01:44:05;;;;;;;80.97;23.90;;;17.40;99.90;;;;;;4923793;29;20227;-82
2023/08/11 01:46:32;;;;;;;80.30;22.47;;;17.40;99.90;;;;;;4940823;29;20407;-82
2023/08/11 01:48:59;;;;;;;83.50;25.20;;;17.30;99.90;;;;;;4941015;29;20423;-81
2023/08/11 01:51:26;;;;;;;79.13;24.80;;;17.40;99.90;;;;;;4940521;29;20408;-81
2023/08/11 01:53:52;;;;;;;84.73;24.47;;;17.40;99.90;;;;;;4940551;29;20408;-81
2023/08/11 01:56:20;;;;;;;80.17;23.63;;;17.30;99.90;;;;;;4923567;29;20433;-81
2023/08/11 01:58:45;;;;;;;79.50;25.27;;;17.20;99.90;;;;;;4940830;29;20503;-81
2023/08/11 02:01:13;;;;;;;78.40;22.37;;;17.10;99.90;;;;;;4940998;29;20447;-81
2023/08/11 02:03:39;;;;;;;78.40;23.57;;;17.10;99.90;;;;;;4940345;29;20161;-81
2023/08/11 02:06:05;;;;;;;78.80;22.90;;;17.00;99.90;;;;;;4923407;29;20417;-81
2023/08/11 02:08:32;;;;;;;79.97;24.33;;;17.00;99.90;;;;;;4940561;29;20412;-81
2023/08/11 02:10:58;;;;;;;83.83;23.77;;;17.00;99.90;;;;;;4940485;29;20409;-81
2023/08/11 02:13:23;;;;;;;82.93;23.53;;;17.00;99.90;;;;;;4940900;29;20476;-81
2023/08/11 02:15:49;;;;;;;78.20;23.10;;;16.90;99.90;;;;;;4940282;29;20167;-82
2023/08/11 02:18:15;;;;;;;82.90;26.87;;;16.90;99.90;;;;;;4923390;29;20176;-81
2023/08/11 02:20:41;;;;;;;82.03;27.53;;;16.90;99.90;;;;;;4940320;29;20612;-81
2023/08/11 02:23:08;;;;;;;83.37;28.00;;;16.80;99.90;;;;;;4939961;29;20215;-81
2023/08/11 02:25:34;;;;;;;83.07;30.90;;;16.80;99.90;;;;;;4939618;29;20412;-81
2023/08/11 02:28:00;;;;;;;95.03;37.43;;;16.70;99.90;;;;;;4940148;29;20764;-81
2023/08/11 02:30:29;;;;;;;81.97;35.53;;;16.70;99.90;;;;;;4923294;29;20436;-82
2023/08/11 02:32:55;;;;;;;82.47;32.37;;;16.80;99.90;;;;;;4923192;29;20219;-81
2023/08/11 02:35:24;;;;;;;82.33;29.57;;;16.70;99.90;;;;;;4923001;29;20471;-81
2023/08/11 02:37:49;;;;;;;93.53;39.43;;;16.60;99.90;;;;;;4923194;29;20420;-81
2023/08/11 02:40:16;;;;;;;85.57;35.77;;;16.60;99.90;;;;;;4939633;29;20444;-81
2023/08/11 02:42:52;;;;;;;83.60;29.87;;;16.60;99.90;;;;;;4923048;29;20171;-81
2023/08/11 02:45:17;;;;;;;84.93;33.93;;;16.50;99.90;;;;;;4940443;29;20395;-81
2023/08/11 02:47:43;;;;;;;84.57;34.80;;;16.60;99.90;;;;;;4922434;29;20408;-81
2023/08/11 02:50:09;;;;;;;81.67;31.10;;;16.60;99.90;;;;;;4922683;29;20560;-81
2023/08/11 02:52:36;;;;;;;84.23;31.57;;;16.60;99.90;;;;;;4939629;29;20251;-81
2023/08/11 02:55:09;;;;;;;82.07;32.40;;;16.50;99.90;;;;;;4939558;29;20893;-81
2023/08/11 02:57:35;;;;;;;84.47;35.87;;;16.50;99.90;;;;;;4939908;29;20424;-81
2023/08/11 03:00:07;;;;;;;88.73;35.60;;;16.50;99.90;;;;;;4921944;29;20556;-81
2023/08/11 03:02:33;;;;;;;84.63;32.17;;;16.50;99.90;;;;;;4939923;29;20389;-82
2023/08/11 03:04:58;;;;;;;84.73;34.77;;;16.50;99.90;;;;;;4939979;29;20791;-80
2023/08/11 03:07:24;;;;;;;83.90;36.13;;;16.60;99.90;;;;;;4923030;29;20545;-82
2023/08/11 03:09:50;;;;;;;80.97;33.17;;;16.60;99.90;;;;;;4940250;29;20193;-82
2023/08/11 03:12:15;;;;;;;89.70;32.97;;;16.60;99.90;;;;;;4940422;29;20185;-82
2023/08/11 03:14:41;;;;;;;85.00;28.10;;;16.70;99.90;;;;;;4922977;29;20176;-82
2023/08/11 03:17:09;;;;;;;81.67;31.37;;;16.70;99.90;;;;;;4940616;29;20161;-82
2023/08/11 03:19:35;;;;;;;83.50;32.83;;;16.50;99.90;;;;;;4940114;29;20436;-82
2023/08/11 03:22:02;;;;;;;84.80;34.70;;;16.60;99.90;;;;;;4939960;29;20909;-82
2023/08/11 03:24:27;;;;;;;83.60;37.03;;;16.60;99.90;;;;;;4923360;29;20173;-82
2023/08/11 03:26:53;;;;;;;82.90;35.10;;;16.60;99.90;;;;;;4940015;29;20415;-82
2023/08/11 03:29:19;;;;;;;81.53;34.63;;;16.50;99.90;;;;;;4939940;29;20189;-82
2023/08/11 03:31:46;;;;;;;82.03;31.00;;;16.50;99.90;;;;;;4940489;29;20448;-82
2023/08/11 03:34:11;;;;;;;80.17;30.70;;;16.50;99.90;;;;;;4922563;29;20169;-82
2023/08/11 03:36:37;;;;;;;82.70;32.60;;;16.50;99.90;;;;;;4939997;29;20768;-82
2023/08/11 03:39:03;;;;;;;82.80;31.10;;;16.60;99.90;;;;;;4939889;29;20553;-82
2023/08/11 03:41:29;;;;;;;81.80;30.87;;;16.50;99.90;;;;;;4922779;29;20222;-82
2023/08/11 03:43:55;;;;;;;83.20;33.80;;;16.50;99.90;;;;;;4940341;29;20400;-82
2023/08/11 03:46:20;;;;;;;85.00;34.73;;;16.50;99.90;;;;;;4923364;29;20540;-82
2023/08/11 03:48:46;;;;;;;85.47;37.20;;;16.40;99.90;;;;;;4939985;29;20439;-81
2023/08/11 03:51:12;;;;;;;82.60;32.00;;;16.40;99.90;;;;;;4923229;29;20424;-81
2023/08/11 03:53:39;;;;;;;85.00;35.40;;;16.40;99.90;;;;;;4923146;29;20179;-82
2023/08/11 03:56:07;;;;;;;86.70;37.57;;;16.30;99.90;;;;;;4922759;29;20193;-82
2023/08/11 03:58:35;;;;;;;85.47;34.90;;;16.30;99.90;;;;;;4922932;29;20932;-82
2023/08/11 04:01:01;;;;;;;86.20;44.00;;;16.30;99.90;;;;;;4923253;29;20456;-82
2023/08/11 04:03:30;;;;;;;86.13;34.10;;;16.20;99.90;;;;;;4940286;29;20400;-82
2023/08/11 04:05:57;;;;;;;86.07;38.13;;;16.30;99.90;;;;;;4940022;29;20413;-82
2023/08/11 04:08:23;;;;;;;84.00;36.70;;;16.30;99.90;;;;;;4939866;29;20408;-82
2023/08/11 04:10:49;;;;;;;86.70;36.50;;;16.30;99.90;;;;;;4924266;29;20417;-82
2023/08/11 04:13:14;;;;;;;85.97;38.73;;;16.30;99.90;;;;;;4943434;29;20510;-82
2023/08/11 04:15:40;;;;;;;84.10;38.63;;;16.30;99.90;;;;;;4943318;29;20175;-82
2023/08/11 04:18:06;;;;;;;86.57;39.13;;;16.30;99.90;;;;;;4943640;29;20183;-81
2023/08/11 04:20:33;;;;;;;88.90;35.70;;;16.20;99.90;;;;;;4925448;29;20287;-81
2023/08/11 04:22:58;;;;;;;86.17;38.43;;;16.20;99.90;;;;;;4942698;29;20161;-82
2023/08/11 04:25:24;;;;;;;88.77;41.63;;;16.30;99.90;;;;;;4942978;29;20820;-81
2023/08/11 04:27:50;;;;;;;86.57;37.57;;;16.20;99.90;;;;;;4942468;29;20173;-81
2023/08/11 04:30:15;;;;;;;85.30;34.27;;;16.30;99.90;;;;;;4942889;29;20755;-81
2023/08/11 04:32:41;;;;;;;87.83;37.07;;;16.30;99.90;;;;;;4925356;29;20193;-81
2023/08/11 04:35:08;;;;;;;92.00;43.33;;;16.30;99.90;;;;;;4942682;29;20184;-81
2023/08/11 04:37:34;;;;;;;91.00;33.37;;;16.30;99.90;;;;;;4925574;29;20216;-81
2023/08/11 04:40:00;;;;;;;86.80;41.40;;;16.30;99.90;;;;;;4942282;29;20458;-81
2023/08/11 04:42:25;;;;;;;85.90;37.13;;;16.30;99.90;;;;;;4924874;29;20432;-81
2023/08/11 04:44:51;;;;;;;86.50;35.10;;;16.30;99.90;;;;;;4925665;29;20888;-81
2023/08/11 04:47:17;;;;;;;84.30;33.73;;;16.40;99.90;;;;;;4942596;29;20175;-81
2023/08/11 04:49:43;;;;;;;86.90;37.90;;;16.30;99.90;;;;;;4941817;29;20665;-81
2023/08/11 04:52:09;;;;;;;85.40;32.63;;;16.40;99.90;;;;;;4941970;29;20198;-81
2023/08/11 04:54:35;;;;;;;90.20;34.20;;;16.40;99.90;;;;;;4925162;29;20407;-81
2023/08/11 04:57:00;;;;;;;83.40;30.50;;;16.50;99.90;;;;;;4941778;29;21020;-81
2023/08/11 04:59:26;;;;;;;88.30;33.70;;;16.40;99.90;;;;;;4924927;29;20189;-80
2023/08/11 05:01:52;;;;;;;93.40;43.33;;;16.40;99.90;;;;;;4942137;29;20278;-81
2023/08/11 05:04:17;;;;;;;89.43;39.33;;;16.40;99.90;;;;;;4941347;29;20175;-81
2023/08/11 05:06:43;;;;;;;86.53;36.00;;;16.50;99.90;;;;;;4941747;29;20173;-81
2023/08/11 05:09:09;;;;;;;94.83;38.60;;;16.50;99.90;;;;;;4941507;29;20224;-81
2023/08/11 05:11:34;;;;;;;88.87;41.07;;;16.50;99.90;;;;;;4924563;29;20183;-81
2023/08/11 05:14:00;;;;;;;86.57;33.67;;;16.50;99.90;;;;;;4924274;29;20416;-81
2023/08/11 05:16:26;;;;;;;88.07;34.43;;;16.50;99.90;;;;;;4924290;29;20268;-81
2023/08/11 05:18:51;;;;;;;87.10;35.67;;;16.60;99.90;;;;;;4941285;29;20192;-81
2023/08/11 05:21:17;;;;;;;84.70;33.13;;;16.60;99.90;;;;;;4924113;29;20220;-81
2023/08/11 05:23:43;;;;;;;86.13;35.40;;;16.60;99.90;;;;;;4924418;29;20256;-81
2023/08/11 05:26:09;;;;;;;85.50;33.90;;;16.70;99.90;;;;;;4941777;29;20437;-81
2023/08/11 05:28:35;;;;;;;88.03;34.73;;;16.80;99.90;;;;;;4923902;29;20405;-81
2023/08/11 05:31:03;;;;;;;87.60;32.13;;;16.80;99.90;;;;;;4941126;29;20181;-80
2023/08/11 05:33:29;;;;;;;85.57;35.40;;;16.80;99.90;;;;;;4941262;29;20416;-81
2023/08/11 05:35:55;;;;;;;83.10;34.00;;;16.90;99.90;;;;;;4941690;29;20420;-80
2023/08/11 05:38:22;;;;;;;85.00;32.67;;;17.00;99.90;;;;;;4923996;29;20179;-79
2023/08/11 05:40:48;;;;;;;88.60;35.03;;;17.00;99.90;;;;;;4941006;29;20221;-80
2023/08/11 05:43:18;;;;;;;87.30;36.03;;;17.00;99.90;;;;;;4941425;29;20451;-79
2023/08/11 05:45:43;;;;;;;83.50;34.53;;;17.10;99.90;;;;;;4940990;29;20415;-80
2023/08/11 05:48:09;;;;;;;82.70;30.60;;;17.10;99.90;;;;;;4923720;29;20869;-80
2023/08/11 05:50:35;;;;;;;82.23;26.57;;;17.10;99.90;;;;;;4939870;29;20491;-81
2023/08/11 05:53:01;;;;;;;82.17;22.87;;;17.20;99.90;;;;;;4940860;29;20503;-81
2023/08/11 05:55:27;;;;;;;84.27;22.30;;;17.20;99.90;;;;;;4940633;29;20696;-80
2023/08/11 05:57:53;;;;;;;77.87;18.23;;;17.20;99.90;;;;;;4940832;29;20416;-81
2023/08/11 06:00:19;;;;;;;77.87;18.57;;;17.20;99.90;;;;;;4940454;29;20464;-81
2023/08/11 06:02:47;;;;;;;79.27;19.07;;;17.30;99.90;;;;;;4940510;29;20179;-81
2023/08/11 06:05:12;;;;;;;83.50;17.67;;;17.40;99.90;;;;;;4923721;29;20408;-81
2023/08/11 06:07:39;;;;;;;79.77;17.80;;;17.40;99.90;;;;;;4941391;29;20480;-81
2023/08/11 06:10:05;;;;;;;76.83;18.27;;;17.50;99.90;;;;;;4940634;29;20488;-80
2023/08/11 06:12:31;;;;;;;79.60;16.27;;;17.50;99.90;;;;;;4923871;29;20467;-81
2023/08/11 06:14:57;;;;;;;77.50;18.63;;;17.60;99.90;;;;;;4940813;29;20419;-81
2023/08/11 06:17:23;;;;;;;81.20;16.97;;;17.60;99.90;;;;;;4923315;29;20537;-80
2023/08/11 06:19:49;;;;;;;77.43;17.87;;;17.70;99.90;;;;;;4940758;29;20271;-81
2023/08/11 06:22:14;;;;;;;78.10;15.30;;;17.70;99.90;;;;;;4940324;29;20326;-81
2023/08/11 06:24:40;;;;;;;77.47;17.90;;;17.80;99.90;;;;;;4940237;29;20654;-81
2023/08/11 06:27:06;;;;;;;77.97;15.90;;;17.80;99.90;;;;;;4940695;29;20179;-81
2023/08/11 06:29:32;;;;;;;80.70;12.63;;;17.90;99.90;;;;;;4940314;29;20429;-81
2023/08/11 06:31:58;;;;;;;77.57;19.10;;;18.00;99.90;;;;;;4939792;29;20173;-81
2023/08/11 06:34:23;;;;;;;77.60;17.13;;;18.00;99.90;;;;;;4922881;29;20208;-81
2023/08/11 06:36:49;;;;;;;77.47;17.13;;;18.10;99.90;;;;;;4940447;29;20570;-81
2023/08/11 06:39:15;;;;;;;78.23;17.10;;;18.10;99.90;;;;;;4940090;29;20192;-81
2023/08/11 06:41:41;;;;;;;77.13;11.60;;;18.20;99.90;;;;;;4940223;29;20192;-81
2023/08/11 06:44:07;;;;;;;75.80;12.03;;;18.20;99.90;;;;;;4922678;29;20450;-81
2023/08/11 06:46:33;;;;;;;78.53;14.40;;;18.30;99.90;;;;;;4939554;29;20416;-81
2023/08/11 06:48:59;;;;;;;75.40;14.10;;;18.40;99.90;;;;;;4938538;29;20439;-81
2023/08/11 06:51:25;;;;;;;77.50;11.47;;;18.50;99.90;;;;;;4939042;29;20398;-80
2023/08/11 06:53:51;;;;;;;78.40;9.07;;;18.50;99.90;;;;;;4939022;29;20418;-81
2023/08/11 06:56:19;;;;;;;77.67;7.70;;;18.60;99.90;;;;;;5025731;23;20674;-87
2023/08/11 06:58:45;;;;;;;80.80;8.10;;;18.60;99.90;;;;;;4946638;29;20184;-87
2023/08/11 07:01:14;;;;;;;74.60;9.30;;;18.70;99.90;;;;;;4929578;29;20531;-87
2023/08/11 07:03:40;;;;;;;76.40;10.50;;;18.70;99.90;;;;;;4929624;29;20439;-87
2023/08/11 07:06:11;;;;;;;79.00;10.93;;;18.80;99.90;;;;;;4928692;29;20413;-87
2023/08/11 07:08:43;;;;;;;80.83;13.50;;;18.90;99.90;;;;;;4927833;29;20818;-87
2023/08/11 07:11:31;;;;;;;85.40;28.30;;;19.00;99.90;;;;;;4926850;29;20427;-86
2023/08/11 07:14:03;;;;;;;77.47;15.93;;;19.10;95.40;;;;;;4934255;29;20421;-86
2023/08/11 07:16:38;;;;;;;80.77;19.87;;;19.20;98.20;;;;;;4911478;29;20515;-87
2023/08/11 07:19:14;;;;;;;81.57;23.30;;;19.30;92.10;;;;;;4927147;29;20440;-87
2023/08/11 07:21:43;;;;;;;79.70;21.40;;;19.40;95.00;;;;;;4944274;29;20841;-87
2023/08/11 07:24:08;;;;;;;81.70;27.43;;;19.50;92.40;;;;;;4944615;29;20440;-87
2023/08/11 07:26:37;;;;;;;83.03;30.37;;;19.50;92.90;;;;;;4927062;29;20417;-86
2023/08/11 07:29:06;;;;;;;82.73;33.80;;;19.60;88.90;;;;;;4944060;29;20188;-86
2023/08/11 07:31:57;;;;;;;83.30;34.73;;;19.60;82.90;;;;;;4912204;29;20932;-86
2023/08/11 07:34:23;;;;;;;82.53;30.93;;;19.70;81.50;;;;;;4937270;29;20452;-87
2023/08/11 07:36:52;;;;;;;82.80;24.80;;;19.80;88.50;;;;;;4944313;29;20496;-87
2023/08/11 07:39:20;;;;;;;81.27;30.23;;;19.80;92.70;;;;;;4944135;29;20546;-87
2023/08/11 07:41:49;;;;;;;83.80;34.07;;;19.90;92.10;;;;;;4943208;29;20539;-87
2023/08/11 07:44:21;;;;;;;85.13;35.83;;;20.10;82.40;;;;;;4942266;29;20400;-86
2023/08/11 07:46:50;;;;;;;82.87;33.97;;;20.20;84.30;;;;;;4946999;29;20389;-87
2023/08/11 07:49:16;;;;;;;87.93;35.17;;;20.30;79.40;;;;;;4946508;29;20448;-86
2023/08/11 07:51:49;;;;;;;94.67;36.97;;;20.40;83.80;;;;;;4947943;29;20396;-86
2023/08/11 07:54:31;;;;;;;;;;;;;;;;;;;;;
2023/08/11 07:57:00;;;;;;;84.20;33.00;;;20.60;77.50;;;;;;4947818;29;20508;-87
2023/08/11 07:59:31;;;;;;;79.43;18.90;;;20.70;74.20;;;;;;4947398;29;20434;-86
2023/08/11 08:02:32;;;;;;;74.40;13.47;;;20.70;59.80;;;;;;4947305;29;20499;-87
2023/08/11 08:05:06;;;;;;;76.37;12.90;;;20.80;38.00;;;;;;4946232;29;20417;-86
2023/08/11 08:10:56;;;;;;;74.47;12.93;;;20.90;59.50;;;;;;5264600;23;20491;-87
2023/08/11 08:13:33;;;;;;;78.50;14.80;;;21.00;56.10;;;;;;4947265;29;20412;-87
2023/08/11 08:16:54;;;;;;;74.60;15.17;;;21.10;43.20;;;;;;4948077;29;20414;-87
2023/08/11 08:19:07;;;;;;;78.20;15.40;;;21.20;47.60;;;;;;4934936;29;20435;-87
2023/08/11 08:21:33;;;;;;;77.67;16.80;;;21.30;33.70;;;;;;4949831;29;20476;-87
2023/08/11 08:24:08;;;;;;;74.20;10.13;;;21.30;38.30;;;;;;4937392;29;20417;-86
2023/08/11 08:30:05;;;;;;;76.80;12.87;;;21.40;28.60;;;;;;4962067;23;20494;-87
2023/08/11 08:32:34;;;;;;;78.07;7.90;;;21.50;36.00;;;;;;4929502;29;20415;-87
2023/08/11 08:35:18;;;;;;;79.47;11.43;;;21.70;12.00;;;;;;4929266;29;20415;-86
2023/08/11 08:38:15;;;;;;;72.67;7.50;;;21.90;18.90;;;;;;4930096;29;20416;-86
2023/08/11 08:41:31;;;;;;;72.87;8.80;;;21.90;10.10;;;;;;4946596;29;20457;-86
2023/08/11 08:47:26;;;;;;;73.60;8.97;;;22.10;26.30;;;;;;4875484;29;20484;-87
2023/08/11 08:50:00;;;;;;;77.10;9.83;;;22.10;14.80;;;;;;4947152;29;20905;-87
2023/08/11 08:52:26;;;;;;;72.80;7.90;;;22.30;21.50;;;;;;4946114;29;20483;-87
2023/08/11 08:54:55;;;;;;;77.03;6.93;;;22.40;12.60;;;;;;4929918;29;20428;-87
2023/08/11 08:57:25;;;;;;;72.57;7.00;;;22.50;12.80;;;;;;4946356;29;20405;-86
2023/08/11 08:59:55;;;;;;;72.47;6.17;;;22.60;14.80;;;;;;4946877;29;20432;-88
2023/08/11 09:02:28;;;;;;;72.43;6.30;;;22.70;1.30;;;;;;4933735;29;20412;-87
2023/08/11 09:04:56;;;;;;;72.00;5.73;;;22.70;6.00;;;;;;4949239;29;20421;-87
2023/08/11 09:07:22;;;;;;;76.00;6.23;;;22.80;1.60;;;;;;4915780;29;20413;-87
2023/08/11 09:10:07;;;;;;;77.57;7.53;;;22.90;4.50;;;;;;4931700;29;20436;-86
2023/08/11 09:12:33;;;;;;;71.57;5.97;;;23.00;2.60;;;;;;4948752;29;20428;-86
2023/08/11 09:15:09;;;;;;;72.60;5.57;;;23.20;1.00;;;;;;4914904;29;20432;-86
2023/08/11 09:17:46;;;;;;;74.63;5.60;;;23.20;1.00;;;;;;4929887;29;20173;-86
2023/08/11 09:20:19;;;;;;;73.27;6.20;;;23.40;1.00;;;;;;4945429;29;20443;-87
2023/08/11 09:22:45;;;;;;;73.87;5.23;;;23.50;1.00;;;;;;4915034;29;20409;-87
2023/08/11 09:25:12;;;;;;;74.00;4.60;;;23.70;1.00;;;;;;4928977;29;21007;-87
2023/08/11 09:27:40;;;;;;;72.57;4.43;;;23.80;1.00;;;;;;4947363;29;20240;-87
2023/08/11 09:30:09;;;;;;;74.90;5.07;;;23.80;1.00;;;;;;4932569;29;20483;-85
2023/08/11 09:32:35;;;;;;;72.97;5.07;;;23.90;1.00;;;;;;4952291;29;20413;-84
2023/08/11 09:35:08;;;;;;;74.03;5.03;;;24.00;1.00;;;;;;4951475;29;20519;-84
2023/08/11 09:37:35;;;;;;;71.00;4.97;;;24.10;1.00;;;;;;4951706;29;20169;-84
2023/08/11 09:40:04;;;;;;;73.23;5.03;;;24.20;1.00;;;;;;4951093;29;20424;-84
2023/08/11 09:42:30;;;;;;;77.20;5.80;;;24.40;1.00;;;;;;4950338;29;20401;-84
2023/08/11 09:44:56;;;;;;;72.17;5.63;;;24.60;1.00;;;;;;4933454;29;20774;-84
2023/08/11 09:47:22;;;;;;;71.93;6.30;;;24.70;1.00;;;;;;4951196;29;20488;-84
2023/08/11 09:49:47;;;;;;;71.97;6.33;;;24.80;1.00;;;;;;4950009;29;20185;-84
2023/08/11 09:52:14;;;;;;;74.80;7.80;;;24.90;1.00;;;;;;4951299;29;20170;-84
2023/08/11 09:54:43;;;;;;;71.80;8.00;;;25.00;1.00;;;;;;4954958;29;20160;-85
2023/08/11 09:57:10;;;;;;;72.70;8.37;;;25.20;1.00;;;;;;4952076;29;20416;-84
2023/08/11 09:59:38;;;;;;;74.40;7.17;;;25.30;1.00;;;;;;4952510;29;20512;-84
2023/08/11 10:02:06;;;;;;;75.00;7.70;;;25.50;1.00;;;;;;4952538;29;20537;-84
2023/08/11 10:04:41;;;;;;;74.60;9.37;;;25.60;1.00;;;;;;4953391;29;20407;-85
2023/08/11 10:07:14;;;;;;;72.93;6.43;;;25.70;1.00;;;;;;4951762;29;20410;-84
2023/08/11 10:09:51;;;;;;;78.20;7.40;;;25.90;1.00;;;;;;4950377;29;20418;-84
2023/08/11 10:12:26;;;;;;;74.47;6.70;;;26.20;1.00;;;;;;4934625;29;20441;-85
2023/08/11 10:14:52;;;;;;;71.27;7.40;;;26.40;1.00;;;;;;4949822;29;20391;-84
2023/08/11 10:17:21;;;;;;;76.30;17.47;;;26.40;1.00;;;;;;4950311;29;20416;-84
2023/08/11 10:19:50;;;;;;;72.67;10.70;;;26.50;1.00;;;;;;4933748;29;20498;-84
2023/08/11 10:22:16;;;;;;;78.30;24.00;;;26.80;1.00;;;;;;4951483;29;20419;-85
2023/08/11 10:24:43;;;;;;;79.93;28.87;;;26.90;1.00;;;;;;4952349;29;20777;-85
2023/08/11 10:27:09;;;;;;;80.70;21.20;;;27.10;1.00;;;;;;4951140;29;20572;-84
2023/08/11 10:29:37;;;;;;;74.10;8.57;;;27.20;1.00;;;;;;4951327;29;20440;-84
2023/08/11 10:32:03;;;;;;;80.00;18.37;;;27.40;1.00;;;;;;4951793;29;20417;-85
2023/08/11 10:34:29;;;;;;;75.67;7.83;;;27.50;1.00;;;;;;4951337;29;20489;-85
2023/08/11 10:36:57;;;;;;;72.77;8.77;;;27.70;1.00;;;;;;4950614;29;20409;-85
2023/08/11 10:39:23;;;;;;;75.50;8.00;;;27.70;1.00;;;;;;4934232;29;20204;-84
2023/08/11 10:41:49;;;;;;;74.00;6.00;;;27.90;1.00;;;;;;4950040;29;20492;-84
2023/08/11 10:44:41;;;;;;;72.73;5.60;;;28.20;1.00;;;;;;4950311;29;20400;-84
2023/08/11 10:47:08;;;;;;;71.50;4.43;;;28.50;1.00;;;;;;4909692;29;20428;-84
2023/08/11 10:49:40;;;;;;;71.57;4.67;;;28.70;1.00;;;;;;4951414;29;20984;-85
2023/08/11 10:52:06;;;;;;;73.20;4.00;;;28.60;1.00;;;;;;4949511;29;20393;-84
2023/08/11 10:54:32;;;;;;;72.97;4.90;;;28.50;1.00;;;;;;4950171;29;20972;-84
2023/08/11 10:57:02;;;;;;;72.97;4.97;;;28.50;1.00;;;;;;4952362;29;20436;-85
2023/08/11 10:59:30;;;;;;;71.20;3.70;;;28.70;1.00;;;;;;4949120;29;20425;-84
2023/08/11 11:01:56;;;;;;;73.70;5.13;;;28.80;1.00;;;;;;4949574;29;20471;-84
2023/08/11 11:04:26;;;;;;;75.30;4.47;;;29.00;1.00;;;;;;4949214;29;20408;-85
2023/08/11 11:06:52;;;;;;;71.90;5.47;;;29.00;1.00;;;;;;4932613;29;20503;-85
2023/08/11 11:09:18;;;;;;;72.70;5.80;;;29.00;1.00;;;;;;4933614;29;20432;-85
2023/08/11 11:11:44;;;;;;;74.30;9.43;;;29.00;1.00;;;;;;4949176;29;20179;-85
2023/08/11 11:14:14;;;;;;;74.47;8.30;;;29.20;1.00;;;;;;4932385;29;20420;-84
2023/08/11 11:16:40;;;;;;;77.30;9.40;;;29.30;1.00;;;;;;4949641;29;20484;-84
2023/08/11 11:19:07;;;;;;;73.50;8.00;;;29.50;1.00;;;;;;4948899;29;20468;-85
2023/08/11 11:21:34;;;;;;;72.90;8.70;;;29.70;1.00;;;;;;4953400;29;20440;-84
2023/08/11 11:24:01;;;;;;;75.43;9.67;;;30.10;1.00;;;;;;4935134;29;20409;-85
2023/08/11 11:26:28;;;;;;;74.63;9.27;;;30.30;1.00;;;;;;4957784;29;20507;-84
2023/08/11 11:28:56;;;;;;;74.40;8.23;;;30.50;1.00;;;;;;4954846;29;20424;-85
2023/08/11 11:31:23;;;;;;;74.07;6.53;;;30.50;1.00;;;;;;4952733;29;20469;-85
2023/08/11 11:33:51;;;;;;;74.60;7.80;;;30.80;1.00;;;;;;4952229;29;20442;-85
2023/08/11 11:36:19;;;;;;;80.00;11.40;;;31.10;1.00;;;;;;4952672;29;20814;-85
2023/08/11 11:38:46;;;;;;;73.90;9.87;;;31.10;1.00;;;;;;4934866;29;20447;-85
2023/08/11 11:41:17;;;;;;;78.63;21.90;;;30.60;1.00;;;;;;4952052;29;20416;-85
2023/08/11 11:43:45;;;;;;;80.50;20.47;;;30.10;1.00;;;;;;4939546;29;20509;-85
2023/08/11 11:46:14;;;;;;;77.60;20.00;;;30.10;1.00;;;;;;4954339;29;20408;-86
2023/08/11 11:48:45;;;;;;;79.27;17.30;;;30.40;1.00;;;;;;4953847;29;20488;-85
2023/08/11 11:51:13;;;;;;;79.37;12.00;;;30.40;1.00;;;;;;4938328;29;21002;-85
2023/08/11 11:53:39;;;;;;;77.70;20.13;;;30.70;1.00;;;;;;4936130;29;20420;-85
2023/08/11 11:56:05;;;;;;;81.00;17.20;;;30.80;1.00;;;;;;4954293;29;20440;-86
2023/08/11 11:58:33;;;;;;;76.70;13.90;;;31.10;1.00;;;;;;4954045;29;20404;-85
2023/08/11 12:01:18;;;;;;;80.00;24.37;;;31.40;1.00;;;;;;4954277;29;20625;-85
2023/08/11 12:03:46;;;;;;;73.63;6.97;;;31.60;1.00;;;;;;4956276;29;20423;-85
2023/08/11 12:06:12;;;;;;;77.00;17.30;;;31.70;1.00;;;;;;4955680;29;20413;-85
2023/08/11 12:08:41;;;;;;;77.70;15.93;;;31.70;1.00;;;;;;4936545;29;20420;-85
2023/08/11 12:11:10;;;;;;;77.20;16.40;;;31.80;1.00;;;;;;4955443;29;20460;-85
2023/08/11 12:13:40;;;;;;;79.37;27.07;;;32.00;1.00;;;;;;4936399;29;20512;-85
2023/08/11 12:16:07;;;;;;;75.00;7.20;;;31.90;1.00;;;;;;4956110;29;20393;-85
2023/08/11 12:18:34;;;;;;;75.50;6.77;;;32.10;1.00;;;;;;4956425;29;20432;-85
2023/08/11 12:21:01;;;;;;;74.27;9.87;;;32.30;1.00;;;;;;4950276;29;20400;-85
2023/08/11 12:23:27;;;;;;;78.13;17.27;;;32.30;1.00;;;;;;4952216;29;20401;-85
2023/08/11 12:25:54;;;;;;;75.67;9.63;;;32.20;1.00;;;;;;4952101;29;20413;-85
2023/08/11 12:28:20;;;;;;;77.37;18.97;;;32.20;1.00;;;;;;4951094;29;20409;-85
2023/08/11 12:30:46;;;;;;;82.03;31.10;;;32.10;1.00;;;;;;4951988;29;20963;-85
2023/08/11 12:33:12;;;;;;;77.37;17.47;;;32.30;1.00;;;;;;4953419;29;20416;-85
2023/08/11 12:35:38;;;;;;;73.20;8.03;;;32.30;1.00;;;;;;4954449;29;20429;-86
2023/08/11 12:38:12;;;;;;;76.90;6.70;;;32.60;1.00;;;;;;4955070;29;20175;-86
2023/08/11 12:40:38;;;;;;;76.87;11.40;;;32.50;1.00;;;;;;4953991;29;20195;-85
2023/08/11 12:43:04;;;;;;;73.10;6.43;;;32.50;1.00;;;;;;4953730;29;20412;-85
2023/08/11 12:45:29;;;;;;;76.23;12.87;;;32.60;1.00;;;;;;4954628;29;20496;-85
2023/08/11 12:47:55;;;;;;;77.77;20.20;;;32.60;1.00;;;;;;4952957;29;20228;-84